Time;durP1;ratioP1;P1;durP2;ratioP2;P2;SDS_P1;SDS_P2;PMS_P1;PMS_P2;Temp;Humidity;BMP_temperature;BMP_pressure;BME280_temperature;BME280_humidity;BME280_pressure;Samples;Min_cycle;Max_cycle;Signal;HPM_P1;HPM_P2
2022/07/31 00:00:56;;;;;;;6.70;4.15;;;;;;;;;;2049268;28;20262;-64
2022/07/31 00:01:56;;;;;;;4.95;4.57;;;;;;;;;;2050021;29;20233;-66
2022/07/31 00:02:57;;;;;;;5.70;5.20;;;;;;;;;;2057469;28;20277;-64
2022/07/31 00:03:57;;;;;;;6.28;4.75;;;;;;;;;;2057117;28;20186;-63
2022/07/31 00:04:57;;;;;;;4.60;4.20;;;;;;;;;;2049418;28;20171;-63
2022/07/31 00:05:58;;;;;;;5.00;4.60;;;;;;;;;;2049966;28;20179;-63
2022/07/31 00:06:58;;;;;;;4.55;4.18;;;;;;;;;;2049942;29;20226;-64
2022/07/31 00:07:59;;;;;;;4.13;3.83;;;;;;;;;;2048686;29;20179;-64
2022/07/31 00:08:59;;;;;;;4.80;4.25;;;;;;;;;;2049333;29;20175;-65
2022/07/31 00:09:59;;;;;;;5.00;3.92;;;;;;;;;;2049685;28;20636;-63
2022/07/31 00:11:00;;;;;;;4.90;3.58;;;;;;;;;;2049369;29;20238;-64
2022/07/31 00:12:00;;;;;;;4.05;3.60;;;;;;;;;;2049821;29;20167;-63
2022/07/31 00:13:00;;;;;;;4.32;4.03;;;;;;;;;;2057461;28;20171;-63
2022/07/31 00:14:00;;;;;;;4.20;3.90;;;;;;;;;;2056785;28;20198;-60
2022/07/31 00:15:02;;;;;;;4.15;3.70;;;;;;;;;;2049931;28;20226;-64
2022/07/31 00:16:03;;;;;;;6.13;4.07;;;;;;;;;;2049900;28;20179;-63
2022/07/31 00:17:03;;;;;;;5.05;3.80;;;;;;;;;;2041436;29;20266;-66
2022/07/31 00:18:04;;;;;;;4.72;4.32;;;;;;;;;;2041322;29;20191;-65
2022/07/31 00:19:04;;;;;;;3.60;3.30;;;;;;;;;;2049790;29;20183;-64
2022/07/31 00:20:05;;;;;;;3.90;3.60;;;;;;;;;;2049765;28;20203;-62
2022/07/31 00:21:05;;;;;;;3.85;3.55;;;;;;;;;;2049998;28;20168;-65
2022/07/31 00:22:06;;;;;;;5.50;4.22;;;;;;;;;;2049957;28;20167;-63
2022/07/31 00:23:07;;;;;;;3.83;3.45;;;;;;;;;;2049795;28;20178;-66
2022/07/31 00:24:07;;;;;;;3.55;3.33;;;;;;;;;;2049010;28;20198;-65
2022/07/31 00:25:08;;;;;;;4.28;3.67;;;;;;;;;;2046920;28;20221;-64
2022/07/31 00:26:08;;;;;;;3.22;3.03;;;;;;;;;;2049810;28;20195;-64
2022/07/31 00:27:09;;;;;;;5.18;3.58;;;;;;;;;;2049746;29;20171;-64
2022/07/31 00:28:09;;;;;;;3.42;3.22;;;;;;;;;;2049718;28;20183;-64
2022/07/31 00:29:10;;;;;;;3.58;2.90;;;;;;;;;;2050028;28;20214;-63
2022/07/31 00:30:15;;;;;;;3.20;2.90;;;;;;;;;;2050111;28;20325;-66
2022/07/31 00:31:17;;;;;;;4.53;3.40;;;;;;;;;;2049848;29;20613;-64
2022/07/31 00:32:17;;;;;;;4.03;3.22;;;;;;;;;;2049396;29;20183;-65
2022/07/31 00:33:17;;;;;;;3.35;3.00;;;;;;;;;;2050117;28;20329;-64
2022/07/31 00:34:18;;;;;;;3.30;3.10;;;;;;;;;;2049067;28;20257;-66
2022/07/31 00:35:18;;;;;;;3.60;3.28;;;;;;;;;;2049298;29;20639;-63
2022/07/31 00:36:18;;;;;;;3.17;2.97;;;;;;;;;;2049784;29;20234;-62
2022/07/31 00:37:19;;;;;;;3.75;3.42;;;;;;;;;;2056983;28;20251;-63
2022/07/31 00:38:19;;;;;;;4.35;3.95;;;;;;;;;;2057435;28;20261;-62
2022/07/31 00:39:20;;;;;;;3.38;3.17;;;;;;;;;;2049614;29;20186;-60
2022/07/31 00:40:20;;;;;;;3.03;2.83;;;;;;;;;;2041258;29;20199;-64
2022/07/31 00:41:20;;;;;;;4.55;3.58;;;;;;;;;;2041426;29;20259;-63
2022/07/31 00:42:23;;;;;;;3.78;3.05;;;;;;;;;;2049399;29;20182;-62
2022/07/31 00:43:23;;;;;;;4.15;3.78;;;;;;;;;;2050479;28;20179;-65
2022/07/31 00:44:23;;;;;;;4.03;3.47;;;;;;;;;;2048501;29;20174;-64
2022/07/31 00:45:24;;;;;;;3.35;3.15;;;;;;;;;;2049570;29;20186;-64
2022/07/31 00:46:24;;;;;;;4.25;3.80;;;;;;;;;;2050992;28;20174;-65
2022/07/31 00:47:26;;;;;;;3.65;3.25;;;;;;;;;;2049541;29;20183;-65
2022/07/31 00:48:26;;;;;;;3.45;3.15;;;;;;;;;;2049215;29;20179;-65
2022/07/31 00:49:26;;;;;;;3.67;3.35;;;;;;;;;;2050668;29;20259;-65
2022/07/31 00:50:27;;;;;;;4.90;3.58;;;;;;;;;;2050169;28;20630;-64
2022/07/31 00:51:27;;;;;;;3.05;2.85;;;;;;;;;;2050793;28;20171;-64
2022/07/31 00:52:28;;;;;;;5.25;4.75;;;;;;;;;;2051419;29;20179;-66
2022/07/31 00:53:28;;;;;;;4.13;3.58;;;;;;;;;;2052608;28;20182;-65
2022/07/31 00:54:29;;;;;;;3.33;3.13;;;;;;;;;;2059101;28;20206;-64
2022/07/31 00:55:30;;;;;;;4.25;3.83;;;;;;;;;;2054272;28;20198;-64
2022/07/31 00:56:30;;;;;;;3.38;3.10;;;;;;;;;;2051593;29;20633;-64
2022/07/31 00:57:31;;;;;;;4.18;3.47;;;;;;;;;;2052595;29;20195;-62
2022/07/31 00:58:31;;;;;;;3.95;3.65;;;;;;;;;;2058033;28;20687;-66
2022/07/31 00:59:32;;;;;;;3.60;3.25;;;;;;;;;;2050219;28;20175;-65
2022/07/31 01:00:32;;;;;;;7.28;5.50;;;;;;;;;;2049553;28;20206;-65
2022/07/31 01:01:33;;;;;;;4.75;4.35;;;;;;;;;;2050001;29;20187;-64
2022/07/31 01:02:33;;;;;;;4.20;3.85;;;;;;;;;;2049859;29;20293;-65
2022/07/31 01:03:33;;;;;;;7.88;7.18;;;;;;;;;;2050323;29;20242;-63
2022/07/31 01:04:34;;;;;;;3.80;3.50;;;;;;;;;;2049087;29;20661;-64
2022/07/31 01:05:34;;;;;;;5.78;5.20;;;;;;;;;;2041549;29;20532;-66
2022/07/31 01:06:35;;;;;;;3.88;3.58;;;;;;;;;;2049722;28;20171;-65
2022/07/31 01:07:35;;;;;;;4.93;3.40;;;;;;;;;;2050037;28;20270;-64
2022/07/31 01:08:35;;;;;;;3.58;3.28;;;;;;;;;;2048957;29;20186;-61
2022/07/31 01:09:36;;;;;;;4.30;3.13;;;;;;;;;;2049334;29;20218;-64
2022/07/31 01:10:54;;;;;;;5.57;3.55;;;;;;;;;;2049154;28;20202;-63
2022/07/31 01:11:58;;;;;;;5.45;5.07;;;;;;;;;;2049622;28;20171;-62
2022/07/31 01:13:03;;;;;;;4.22;3.90;;;;;;;;;;2050199;29;20222;-63
2022/07/31 01:14:07;;;;;;;3.50;3.28;;;;;;;;;;2049204;28;20233;-64
2022/07/31 01:15:08;;;;;;;3.70;3.40;;;;;;;;;;2049897;28;20179;-61
2022/07/31 01:16:10;;;;;;;4.30;4.00;;;;;;;;;;2049670;29;20202;-64
2022/07/31 01:17:11;;;;;;;4.28;3.88;;;;;;;;;;2050386;28;20743;-64
2022/07/31 01:18:12;;;;;;;4.40;4.05;;;;;;;;;;2057715;28;20179;-60
2022/07/31 01:19:27;;;;;;;3.95;3.55;;;;;;;;;;2049897;29;20182;-60
2022/07/31 01:20:28;;;;;;;4.97;4.57;;;;;;;;;;2043690;29;20199;-65
2022/07/31 01:21:33;;;;;;;3.92;3.63;;;;;;;;;;2049916;29;20179;-63
2022/07/31 01:22:52;;;;;;;4.10;3.90;;;;;;;;;;2049748;29;20175;-65
2022/07/31 01:24:11;;;;;;;4.07;3.78;;;;;;;;;;2049296;29;20197;-65
2022/07/31 01:25:36;;;;;;;7.80;5.05;;;;;;;;;;2047957;29;20187;-63
2022/07/31 01:27:02;;;;;;;5.18;3.92;;;;;;;;;;2051067;29;20190;-65
2022/07/31 01:28:09;;;;;;;3.92;3.63;;;;;;;;;;2043390;29;20172;-61
2022/07/31 01:29:16;;;;;;;4.75;4.35;;;;;;;;;;2044024;29;20175;-64
2022/07/31 01:30:19;;;;;;;4.28;3.97;;;;;;;;;;2043226;29;20231;-65
2022/07/31 01:31:22;;;;;;;4.20;3.70;;;;;;;;;;2035002;29;20183;-61
2022/07/31 01:32:24;;;;;;;5.38;4.32;;;;;;;;;;2042976;28;20199;-66
2022/07/31 01:33:29;;;;;;;4.60;3.55;;;;;;;;;;2050807;29;20238;-64
2022/07/31 01:34:35;;;;;;;3.20;3.00;;;;;;;;;;2049698;28;20171;-65
2022/07/31 01:35:44;;;;;;;4.93;4.53;;;;;;;;;;2049018;28;20183;-64
2022/07/31 01:36:48;;;;;;;4.45;4.05;;;;;;;;;;2043556;29;20258;-65
2022/07/31 01:37:48;;;;;;;3.78;3.53;;;;;;;;;;2050934;28;20179;-64
2022/07/31 01:38:50;;;;;;;4.07;3.70;;;;;;;;;;2050523;28;20262;-64
2022/07/31 01:39:58;;;;;;;5.35;4.07;;;;;;;;;;2050022;28;20673;-66
2022/07/31 01:41:01;;;;;;;4.82;4.43;;;;;;;;;;2058153;28;20644;-66
2022/07/31 01:42:03;;;;;;;4.38;4.07;;;;;;;;;;2057844;28;20173;-65
2022/07/31 01:43:05;;;;;;;3.88;3.63;;;;;;;;;;2049947;29;20163;-65
2022/07/31 01:44:06;;;;;;;4.15;3.72;;;;;;;;;;2041644;29;20180;-64
2022/07/31 01:45:09;;;;;;;4.70;4.40;;;;;;;;;;2049089;28;20194;-64
2022/07/31 01:46:11;;;;;;;5.30;3.95;;;;;;;;;;2049137;29;20262;-63
2022/07/31 01:47:14;;;;;;;5.15;4.18;;;;;;;;;;2048811;29;20167;-61
2022/07/31 01:48:15;;;;;;;4.15;3.80;;;;;;;;;;2049508;28;20178;-63
2022/07/31 01:49:17;;;;;;;4.30;4.00;;;;;;;;;;2048961;29;20253;-63
2022/07/31 01:50:18;;;;;;;4.30;4.00;;;;;;;;;;2040821;29;20214;-64
2022/07/31 01:51:20;;;;;;;4.10;3.70;;;;;;;;;;2041045;29;20179;-65
2022/07/31 01:52:21;;;;;;;4.45;4.05;;;;;;;;;;2048630;28;20698;-61
2022/07/31 01:53:23;;;;;;;4.57;4.15;;;;;;;;;;2048914;29;20183;-65
2022/07/31 01:54:25;;;;;;;3.83;3.55;;;;;;;;;;2047919;28;20628;-64
2022/07/31 01:55:26;;;;;;;6.10;3.78;;;;;;;;;;2046382;29;20268;-63
2022/07/31 01:56:28;;;;;;;4.63;4.03;;;;;;;;;;2048309;29;20171;-63
2022/07/31 01:57:29;;;;;;;5.20;3.80;;;;;;;;;;2041058;29;20179;-65
2022/07/31 01:58:40;;;;;;;4.15;3.67;;;;;;;;;;2041348;29;20199;-65
2022/07/31 02:00:03;;;;;;;4.25;3.85;;;;;;;;;;2048382;28;20270;-65
2022/07/31 02:01:25;;;;;;;4.47;3.90;;;;;;;;;;2049836;28;20245;-64
2022/07/31 02:02:26;;;;;;;3.90;3.50;;;;;;;;;;2057691;28;20275;-66
2022/07/31 02:03:27;;;;;;;4.50;3.80;;;;;;;;;;2049415;29;20274;-66
2022/07/31 02:04:28;;;;;;;4.63;4.00;;;;;;;;;;2041425;29;20168;-64
2022/07/31 02:05:29;;;;;;;4.10;3.70;;;;;;;;;;2041416;29;20187;-65
2022/07/31 02:06:30;;;;;;;4.00;3.67;;;;;;;;;;2049419;28;20261;-61
2022/07/31 02:07:30;;;;;;;3.80;3.50;;;;;;;;;;2049341;28;20732;-65
2022/07/31 02:08:31;;;;;;;4.13;3.55;;;;;;;;;;2049245;29;20254;-65
2022/07/31 02:09:33;;;;;;;4.75;3.85;;;;;;;;;;2049276;28;20178;-63
2022/07/31 02:10:34;;;;;;;4.32;3.88;;;;;;;;;;2034147;29;20208;-63
2022/07/31 02:11:35;;;;;;;4.43;4.03;;;;;;;;;;2033962;29;20247;-65
2022/07/31 02:12:36;;;;;;;5.95;4.18;;;;;;;;;;2048971;29;20266;-64
2022/07/31 02:13:37;;;;;;;4.60;4.22;;;;;;;;;;2049073;29;20214;-66
2022/07/31 02:14:41;;;;;;;4.05;3.75;;;;;;;;;;2048317;29;20195;-65
2022/07/31 02:15:42;;;;;;;5.00;4.43;;;;;;;;;;2058271;28;20193;-65
2022/07/31 02:16:43;;;;;;;4.30;4.00;;;;;;;;;;2049329;29;20175;-65
2022/07/31 02:17:51;;;;;;;4.18;3.70;;;;;;;;;;2050251;29;20258;-65
2022/07/31 02:18:52;;;;;;;4.18;3.85;;;;;;;;;;2049748;29;20221;-64
2022/07/31 02:19:57;;;;;;;5.78;3.83;;;;;;;;;;2050021;28;20170;-63
2022/07/31 02:20:59;;;;;;;5.13;4.47;;;;;;;;;;2049319;28;20171;-65
2022/07/31 02:21:59;;;;;;;4.50;4.20;;;;;;;;;;2049424;28;20202;-65
2022/07/31 02:23:03;;;;;;;5.25;4.75;;;;;;;;;;2045789;29;20286;-64
2022/07/31 02:24:03;;;;;;;4.45;4.07;;;;;;;;;;2034789;29;20259;-65
2022/07/31 02:25:05;;;;;;;4.85;4.15;;;;;;;;;;2045272;28;20179;-64
2022/07/31 02:26:07;;;;;;;4.75;4.03;;;;;;;;;;2052503;28;20163;-65
2022/07/31 02:27:09;;;;;;;5.30;4.20;;;;;;;;;;2052927;29;20544;-65
2022/07/31 02:28:11;;;;;;;4.80;4.40;;;;;;;;;;2059870;28;20174;-66
2022/07/31 02:29:12;;;;;;;4.32;3.95;;;;;;;;;;2051845;29;20166;-64
2022/07/31 02:30:14;;;;;;;4.68;4.20;;;;;;;;;;2043190;29;20203;-64
2022/07/31 02:31:15;;;;;;;4.18;3.88;;;;;;;;;;2052057;29;20541;-61
2022/07/31 02:32:19;;;;;;;9.70;4.15;;;;;;;;;;2051322;28;20190;-64
2022/07/31 02:33:22;;;;;;;4.55;4.25;;;;;;;;;;2043670;29;20176;-63
2022/07/31 02:34:22;;;;;;;4.38;4.05;;;;;;;;;;2050784;28;20266;-65
2022/07/31 02:35:24;;;;;;;4.63;4.20;;;;;;;;;;2051045;29;20202;-64
2022/07/31 02:36:26;;;;;;;4.75;4.45;;;;;;;;;;2051484;28;20183;-65
2022/07/31 02:37:28;;;;;;;4.45;4.10;;;;;;;;;;2059285;28;20571;-66
2022/07/31 02:38:29;;;;;;;5.22;4.15;;;;;;;;;;2051294;29;20214;-65
2022/07/31 02:39:31;;;;;;;5.50;4.65;;;;;;;;;;2051198;29;20163;-66
2022/07/31 02:40:31;;;;;;;4.50;4.20;;;;;;;;;;2043303;29;20282;-62
2022/07/31 02:41:32;;;;;;;6.13;4.63;;;;;;;;;;2051156;28;20618;-66
2022/07/31 02:42:33;;;;;;;4.97;4.20;;;;;;;;;;2051365;29;20175;-64
2022/07/31 02:43:34;;;;;;;5.10;4.30;;;;;;;;;;2051310;28;20214;-64
2022/07/31 02:44:43;;;;;;;5.20;4.30;;;;;;;;;;2050153;29;20159;-63
2022/07/31 02:45:44;;;;;;;5.50;4.95;;;;;;;;;;2051308;28;20193;-64
2022/07/31 02:46:45;;;;;;;4.90;4.60;;;;;;;;;;2051318;28;20181;-64
2022/07/31 02:47:45;;;;;;;4.65;4.35;;;;;;;;;;2051125;29;20182;-63
2022/07/31 02:48:48;;;;;;;4.60;4.20;;;;;;;;;;2043381;29;20211;-64
2022/07/31 02:49:49;;;;;;;6.32;4.50;;;;;;;;;;2043046;29;20211;-66
2022/07/31 02:50:50;;;;;;;6.22;4.20;;;;;;;;;;2050998;28;20179;-64
2022/07/31 02:51:51;;;;;;;6.40;5.00;;;;;;;;;;2051003;29;20659;-63
2022/07/31 02:52:51;;;;;;;6.80;4.93;;;;;;;;;;2043351;29;20182;-64
2022/07/31 02:53:52;;;;;;;4.60;4.20;;;;;;;;;;2042628;29;20182;-61
2022/07/31 02:54:54;;;;;;;6.18;4.70;;;;;;;;;;2050794;28;20186;-64
2022/07/31 02:56:00;;;;;;;5.60;4.85;;;;;;;;;;2058619;28;20166;-66
2022/07/31 02:57:01;;;;;;;5.32;4.93;;;;;;;;;;2050894;29;20171;-64
2022/07/31 02:58:02;;;;;;;6.85;5.50;;;;;;;;;;2050969;28;20631;-61
2022/07/31 02:59:03;;;;;;;6.00;5.50;;;;;;;;;;2058923;28;20201;-62
2022/07/31 03:00:25;;;;;;;5.78;5.10;;;;;;;;;;2050495;28;20233;-63
2022/07/31 03:01:26;;;;;;;5.25;4.93;;;;;;;;;;2052196;28;20202;-65
2022/07/31 03:02:29;;;;;;;5.60;5.13;;;;;;;;;;2059043;28;20225;-63
2022/07/31 03:03:30;;;;;;;6.60;5.15;;;;;;;;;;2050942;28;20171;-63
2022/07/31 03:04:30;;;;;;;5.55;5.05;;;;;;;;;;2042181;29;20231;-63
2022/07/31 03:05:31;;;;;;;6.60;5.40;;;;;;;;;;2050811;29;20309;-63
2022/07/31 03:06:31;;;;;;;9.40;5.82;;;;;;;;;;2058997;28;20182;-63
2022/07/31 03:07:32;;;;;;;11.10;5.30;;;;;;;;;;2050675;28;20191;-65
2022/07/31 03:08:32;;;;;;;5.68;5.18;;;;;;;;;;2043058;29;20171;-62
2022/07/31 03:09:37;;;;;;;6.70;4.97;;;;;;;;;;2051560;28;20193;-63
2022/07/31 03:11:06;;;;;;;5.95;5.20;;;;;;;;;;2058897;28;20749;-65
2022/07/31 03:12:07;;;;;;;6.53;5.38;;;;;;;;;;2055509;28;20214;-66
2022/07/31 03:13:07;;;;;;;6.43;5.30;;;;;;;;;;2051595;29;20194;-65
2022/07/31 03:14:09;;;;;;;5.60;5.10;;;;;;;;;;2041993;29;20361;-62
2022/07/31 03:15:11;;;;;;;6.80;5.40;;;;;;;;;;2043030;28;20198;-64
2022/07/31 03:16:13;;;;;;;5.03;4.63;;;;;;;;;;2058625;28;20170;-63
2022/07/31 03:17:13;;;;;;;5.85;5.35;;;;;;;;;;2050889;29;20274;-61
2022/07/31 03:18:15;;;;;;;6.50;5.90;;;;;;;;;;2050733;29;20222;-64
2022/07/31 03:19:16;;;;;;;8.25;5.40;;;;;;;;;;2050961;29;20195;-64
2022/07/31 03:20:17;;;;;;;7.55;6.03;;;;;;;;;;2042570;29;20191;-63
2022/07/31 03:21:19;;;;;;;5.60;5.18;;;;;;;;;;2050935;29;20602;-59
2022/07/31 03:22:20;;;;;;;6.13;5.43;;;;;;;;;;2042793;29;20235;-63
2022/07/31 03:23:21;;;;;;;6.10;5.50;;;;;;;;;;2043024;29;20179;-62
2022/07/31 03:24:26;;;;;;;6.53;5.90;;;;;;;;;;2049712;28;20262;-66
2022/07/31 03:25:27;;;;;;;5.93;5.38;;;;;;;;;;2050840;29;20599;-65
2022/07/31 03:26:28;;;;;;;6.22;5.72;;;;;;;;;;2050722;29;20207;-63
2022/07/31 03:27:29;;;;;;;6.57;5.93;;;;;;;;;;2050482;29;20178;-64
2022/07/31 03:28:29;;;;;;;5.88;5.38;;;;;;;;;;2058946;28;20174;-64
2022/07/31 03:29:39;;;;;;;5.45;5.00;;;;;;;;;;2058804;28;20174;-63
2022/07/31 03:30:39;;;;;;;6.15;5.55;;;;;;;;;;2050613;28;20195;-62
2022/07/31 03:31:39;;;;;;;7.22;5.35;;;;;;;;;;2042648;29;20203;-64
2022/07/31 03:32:40;;;;;;;7.07;6.15;;;;;;;;;;2042890;29;20183;-65
2022/07/31 03:33:41;;;;;;;6.50;5.88;;;;;;;;;;2050870;29;20265;-64
2022/07/31 03:34:41;;;;;;;7.40;5.57;;;;;;;;;;2058425;28;20384;-62
2022/07/31 03:35:42;;;;;;;6.70;6.10;;;;;;;;;;2056961;28;20218;-64
2022/07/31 03:36:43;;;;;;;6.95;5.80;;;;;;;;;;2049500;28;20273;-64
2022/07/31 03:37:44;;;;;;;6.70;6.00;;;;;;;;;;2049615;28;20226;-64
2022/07/31 03:38:45;;;;;;;6.65;6.05;;;;;;;;;;2049626;29;20261;-64
2022/07/31 03:39:54;;;;;;;6.85;5.88;;;;;;;;;;2042636;29;20179;-64
2022/07/31 03:40:55;;;;;;;6.20;5.68;;;;;;;;;;2049430;29;20595;-65
2022/07/31 03:41:55;;;;;;;6.63;6.05;;;;;;;;;;2057342;28;20174;-65
2022/07/31 03:42:56;;;;;;;6.90;6.40;;;;;;;;;;2049571;29;20171;-66
2022/07/31 03:43:57;;;;;;;6.47;5.85;;;;;;;;;;2046114;29;20184;-66
2022/07/31 03:44:59;;;;;;;6.50;5.90;;;;;;;;;;2045130;29;20169;-64
2022/07/31 03:46:00;;;;;;;5.80;5.40;;;;;;;;;;2049436;28;20265;-67
2022/07/31 03:47:01;;;;;;;5.63;5.05;;;;;;;;;;2049413;29;20173;-65
2022/07/31 03:48:02;;;;;;;5.85;5.35;;;;;;;;;;2049381;28;20195;-66
2022/07/31 03:49:03;;;;;;;8.38;5.95;;;;;;;;;;2049532;29;20179;-65
2022/07/31 03:50:05;;;;;;;6.40;5.80;;;;;;;;;;2041174;29;20179;-67
2022/07/31 03:51:06;;;;;;;6.40;5.90;;;;;;;;;;2049302;29;20175;-65
2022/07/31 03:52:06;;;;;;;6.80;6.18;;;;;;;;;;2041608;29;20668;-66
2022/07/31 03:53:08;;;;;;;6.97;6.22;;;;;;;;;;2049693;29;20179;-65
2022/07/31 03:54:12;;;;;;;7.55;6.65;;;;;;;;;;2041023;29;20628;-64
2022/07/31 03:55:32;;;;;;;8.55;7.35;;;;;;;;;;2049862;29;20588;-63
2022/07/31 03:56:33;;;;;;;8.43;7.70;;;;;;;;;;2049139;29;20187;-64
2022/07/31 03:57:36;;;;;;;7.28;6.68;;;;;;;;;;2049488;29;20183;-64
2022/07/31 03:58:36;;;;;;;8.38;7.30;;;;;;;;;;2049203;29;20245;-63
2022/07/31 03:59:37;;;;;;;7.55;6.80;;;;;;;;;;2049337;28;20552;-65
2022/07/31 04:00:37;;;;;;;7.60;6.97;;;;;;;;;;2057325;28;20586;-65
2022/07/31 04:01:38;;;;;;;7.03;6.40;;;;;;;;;;2049704;28;20573;-63
2022/07/31 04:02:39;;;;;;;7.88;7.18;;;;;;;;;;2049340;28;20172;-66
2022/07/31 04:04:02;;;;;;;6.75;6.15;;;;;;;;;;2053487;28;20739;-62
2022/07/31 04:05:23;;;;;;;7.28;6.57;;;;;;;;;;2049768;28;20206;-65
2022/07/31 04:06:23;;;;;;;7.53;6.40;;;;;;;;;;2049195;28;20186;-66
2022/07/31 04:07:23;;;;;;;7.40;6.50;;;;;;;;;;2049459;28;20664;-64
2022/07/31 04:08:24;;;;;;;7.22;6.60;;;;;;;;;;2049197;29;20179;-64
2022/07/31 04:09:24;;;;;;;7.65;6.95;;;;;;;;;;2033632;29;20180;-65
2022/07/31 04:10:25;;;;;;;6.68;5.85;;;;;;;;;;2040988;29;20254;-63
2022/07/31 04:11:25;;;;;;;6.85;6.32;;;;;;;;;;2049617;29;20178;-64
2022/07/31 04:12:25;;;;;;;6.18;5.57;;;;;;;;;;2049446;29;20242;-64
2022/07/31 04:13:27;;;;;;;6.78;6.00;;;;;;;;;;2041779;29;20195;-64
2022/07/31 04:14:28;;;;;;;6.32;5.80;;;;;;;;;;2048434;28;20611;-65
2022/07/31 04:15:28;;;;;;;7.22;6.53;;;;;;;;;;2057364;28;20178;-65
2022/07/31 04:16:29;;;;;;;8.57;6.20;;;;;;;;;;2057101;28;20185;-65
2022/07/31 04:17:29;;;;;;;6.60;6.00;;;;;;;;;;2048819;29;20163;-66
2022/07/31 04:18:30;;;;;;;7.63;6.50;;;;;;;;;;2049194;29;20203;-66
2022/07/31 04:19:31;;;;;;;7.65;6.82;;;;;;;;;;2057230;28;20170;-65
2022/07/31 04:20:31;;;;;;;7.10;6.50;;;;;;;;;;2049603;28;20194;-64
2022/07/31 04:21:32;;;;;;;6.80;6.20;;;;;;;;;;2049227;29;20218;-65
2022/07/31 04:22:32;;;;;;;7.25;6.65;;;;;;;;;;2041483;29;20176;-64
2022/07/31 04:23:34;;;;;;;6.88;6.25;;;;;;;;;;2040960;29;20187;-64
2022/07/31 04:24:57;;;;;;;5.75;5.43;;;;;;;;;;2048708;29;20643;-64
2022/07/31 04:26:18;;;;;;;7.13;6.28;;;;;;;;;;2039324;28;20186;-65
2022/07/31 04:27:23;;;;;;;6.90;6.22;;;;;;;;;;2048850;29;20174;-65
2022/07/31 04:28:24;;;;;;;6.28;5.88;;;;;;;;;;2049205;29;20581;-64
2022/07/31 04:29:27;;;;;;;6.63;6.13;;;;;;;;;;2049843;28;20177;-66
2022/07/31 04:30:27;;;;;;;6.65;6.05;;;;;;;;;;2049463;28;20660;-64
2022/07/31 04:31:28;;;;;;;7.72;6.80;;;;;;;;;;2049082;29;20186;-64
2022/07/31 04:32:29;;;;;;;7.93;6.35;;;;;;;;;;2041366;29;20686;-64
2022/07/31 04:33:35;;;;;;;6.50;6.00;;;;;;;;;;2041836;29;20194;-64
2022/07/31 04:34:36;;;;;;;7.47;6.88;;;;;;;;;;2032618;29;20179;-63
2022/07/31 04:35:36;;;;;;;8.27;6.72;;;;;;;;;;2041006;29;20611;-62
2022/07/31 04:36:37;;;;;;;7.07;6.45;;;;;;;;;;2049227;29;20205;-64
2022/07/31 04:37:37;;;;;;;6.82;6.07;;;;;;;;;;2049551;29;20245;-65
2022/07/31 04:38:37;;;;;;;7.22;6.55;;;;;;;;;;2049119;29;20279;-62
2022/07/31 04:39:38;;;;;;;7.07;5.93;;;;;;;;;;2049182;29;20175;-63
2022/07/31 04:40:38;;;;;;;7.60;6.15;;;;;;;;;;2048573;28;20714;-63
2022/07/31 04:41:39;;;;;;;6.65;6.05;;;;;;;;;;2049139;29;20194;-64
2022/07/31 04:42:39;;;;;;;6.68;6.07;;;;;;;;;;2049063;29;20190;-62
2022/07/31 04:43:39;;;;;;;6.43;5.93;;;;;;;;;;2049052;29;20222;-64
2022/07/31 04:44:39;;;;;;;6.93;6.18;;;;;;;;;;2048396;28;20171;-64
2022/07/31 04:45:41;;;;;;;7.35;6.63;;;;;;;;;;2032976;29;20176;-64
2022/07/31 04:46:42;;;;;;;6.90;6.40;;;;;;;;;;2025460;29;20275;-64
2022/07/31 04:47:43;;;;;;;6.97;6.40;;;;;;;;;;2033295;29;20263;-64
2022/07/31 04:48:43;;;;;;;8.88;6.72;;;;;;;;;;2041103;29;20243;-65
2022/07/31 04:49:44;;;;;;;6.97;6.47;;;;;;;;;;2049135;29;20258;-65
2022/07/31 04:50:47;;;;;;;7.70;6.68;;;;;;;;;;2048438;28;20189;-65
2022/07/31 04:51:48;;;;;;;6.68;6.22;;;;;;;;;;2049199;29;20218;-66
2022/07/31 04:52:48;;;;;;;7.22;6.65;;;;;;;;;;2056829;28;20190;-65
2022/07/31 04:53:49;;;;;;;7.20;6.50;;;;;;;;;;2048977;28;20175;-65
2022/07/31 04:54:51;;;;;;;9.02;7.25;;;;;;;;;;2040819;28;20175;-64
2022/07/31 04:57:10;;;;;;;7.10;6.40;;;;;;;;;;2049565;29;20535;-65
2022/07/31 04:58:12;;;;;;;6.80;6.30;;;;;;;;;;2048804;29;20686;-65
2022/07/31 04:59:14;;;;;;;7.35;6.75;;;;;;;;;;2041228;29;20191;-65
2022/07/31 05:00:17;;;;;;;10.93;7.80;;;;;;;;;;2049380;28;20711;-65
2022/07/31 05:01:18;;;;;;;7.35;6.65;;;;;;;;;;2048998;29;20182;-63
2022/07/31 05:02:18;;;;;;;7.82;7.07;;;;;;;;;;2041066;29;20176;-64
2022/07/31 05:03:18;;;;;;;9.07;6.75;;;;;;;;;;2048933;28;20680;-65
2022/07/31 05:04:19;;;;;;;7.30;6.53;;;;;;;;;;2048005;29;20695;-64
2022/07/31 05:05:20;;;;;;;7.28;6.78;;;;;;;;;;2040981;29;20188;-64
2022/07/31 05:06:21;;;;;;;8.60;7.75;;;;;;;;;;2048958;28;20534;-65
2022/07/31 05:07:22;;;;;;;7.13;6.43;;;;;;;;;;2048693;28;20163;-62
2022/07/31 05:08:23;;;;;;;9.73;8.93;;;;;;;;;;2049025;28;20565;-65
2022/07/31 05:09:24;;;;;;;8.13;6.75;;;;;;;;;;2056830;28;20266;-64
2022/07/31 05:11:45;;;;;;;8.00;7.30;;;;;;;;;;2051269;28;20250;-63
2022/07/31 05:12:45;;;;;;;7.55;6.85;;;;;;;;;;2048800;29;20179;-64
2022/07/31 05:13:45;;;;;;;7.28;6.60;;;;;;;;;;2048833;29;20199;-64
2022/07/31 05:14:46;;;;;;;7.88;7.15;;;;;;;;;;2046285;29;20552;-64
2022/07/31 05:15:46;;;;;;;7.75;7.00;;;;;;;;;;2048795;29;20217;-64
2022/07/31 05:16:47;;;;;;;7.25;6.50;;;;;;;;;;2040831;29;20174;-64
2022/07/31 05:17:49;;;;;;;7.20;6.57;;;;;;;;;;2040895;29;20585;-65
2022/07/31 05:19:10;;;;;;;7.63;6.80;;;;;;;;;;2048652;29;20215;-65
2022/07/31 05:20:29;;;;;;;6.88;6.38;;;;;;;;;;2049365;28;20210;-63
2022/07/31 05:21:38;;;;;;;7.50;6.82;;;;;;;;;;2048831;29;20214;-60
2022/07/31 05:22:59;;;;;;;6.75;6.15;;;;;;;;;;2037710;29;20675;-63
2022/07/31 05:24:17;;;;;;;7.50;6.90;;;;;;;;;;2055961;28;20236;-63
2022/07/31 05:25:28;;;;;;;8.50;6.70;;;;;;;;;;2048551;28;20644;-65
2022/07/31 05:26:30;;;;;;;7.65;6.97;;;;;;;;;;2048891;28;20179;-64
2022/07/31 05:27:30;;;;;;;7.53;6.60;;;;;;;;;;2056837;28;20195;-64
2022/07/31 05:28:31;;;;;;;7.18;6.47;;;;;;;;;;2048515;28;20629;-64
2022/07/31 05:29:32;;;;;;;8.93;6.03;;;;;;;;;;2049632;28;20171;-66
2022/07/31 05:30:33;;;;;;;6.75;6.05;;;;;;;;;;2056483;28;20294;-64
2022/07/31 05:31:34;;;;;;;7.80;7.10;;;;;;;;;;2049483;28;20203;-64
2022/07/31 05:32:34;;;;;;;8.90;5.78;;;;;;;;;;2048922;29;20281;-65
2022/07/31 05:33:34;;;;;;;6.78;6.07;;;;;;;;;;2048979;29;20186;-64
2022/07/31 05:34:35;;;;;;;6.85;6.28;;;;;;;;;;2048011;29;20209;-64
2022/07/31 05:35:35;;;;;;;7.13;5.63;;;;;;;;;;2033264;29;20188;-62
2022/07/31 05:36:35;;;;;;;6.90;6.22;;;;;;;;;;2048763;29;20182;-64
2022/07/31 05:37:36;;;;;;;8.25;6.78;;;;;;;;;;2048886;29;20182;-63
2022/07/31 05:38:42;;;;;;;7.53;5.78;;;;;;;;;;2041435;29;20692;-62
2022/07/31 05:40:22;;;;;;;6.88;6.28;;;;;;;;;;2037112;29;20554;-64
2022/07/31 05:41:51;;;;;;;7.28;6.63;;;;;;;;;;2032379;29;20200;-62
2022/07/31 05:43:14;;;;;;;6.53;6.03;;;;;;;;;;2029297;29;20191;-63
2022/07/31 05:44:26;;;;;;;7.75;6.57;;;;;;;;;;2038179;29;20234;-60
2022/07/31 05:45:26;;;;;;;7.30;6.70;;;;;;;;;;2033620;29;20625;-64
2022/07/31 05:46:27;;;;;;;6.53;5.70;;;;;;;;;;2039607;29;20711;-65
2022/07/31 05:47:28;;;;;;;5.97;5.35;;;;;;;;;;2034356;29;20180;-62
2022/07/31 05:48:29;;;;;;;7.93;5.63;;;;;;;;;;2048591;29;20171;-65
2022/07/31 05:49:30;;;;;;;8.27;5.88;;;;;;;;;;2056448;28;20174;-64
2022/07/31 05:50:33;;;;;;;6.95;5.75;;;;;;;;;;2057443;23;20199;-67
2022/07/31 05:51:34;;;;;;;5.72;5.22;;;;;;;;;;2053555;28;20403;-66
2022/07/31 05:52:34;;;;;;;5.80;5.40;;;;;;;;;;2059445;28;20257;-67
2022/07/31 05:54:07;;;;;;;6.25;5.65;;;;;;;;;;2035346;29;20721;-68
2022/07/31 05:55:26;;;;;;;6.40;5.60;;;;;;;;;;2055246;28;20181;-68
2022/07/31 05:56:58;;;;;;;7.13;5.32;;;;;;;;;;2047008;28;20899;-67
2022/07/31 05:58:06;;;;;;;5.90;5.40;;;;;;;;;;2052507;28;20277;-69
2022/07/31 05:59:06;;;;;;;5.90;5.30;;;;;;;;;;2040700;29;20759;-67
2022/07/31 06:00:07;;;;;;;6.00;5.43;;;;;;;;;;2048302;28;20174;-67
2022/07/31 06:01:16;;;;;;;5.78;5.28;;;;;;;;;;2057224;28;20194;-66
2022/07/31 06:02:16;;;;;;;5.32;4.82;;;;;;;;;;2056629;28;20182;-66
2022/07/31 06:03:34;;;;;;;6.30;5.78;;;;;;;;;;2056443;28;20684;-66
2022/07/31 06:04:38;;;;;;;6.25;5.75;;;;;;;;;;2047785;28;20179;-70
2022/07/31 06:05:39;;;;;;;5.47;5.07;;;;;;;;;;2048978;28;20167;-67
2022/07/31 06:06:39;;;;;;;5.53;5.00;;;;;;;;;;2056428;28;20647;-65
2022/07/31 06:07:40;;;;;;;5.22;4.70;;;;;;;;;;2048585;28;20178;-66
2022/07/31 06:08:40;;;;;;;4.47;4.13;;;;;;;;;;2048410;29;20214;-68
2022/07/31 06:09:41;;;;;;;8.65;6.25;;;;;;;;;;2055364;28;20754;-67
2022/07/31 06:10:41;;;;;;;5.57;4.47;;;;;;;;;;2048188;28;20224;-65
2022/07/31 06:11:41;;;;;;;6.57;3.92;;;;;;;;;;2056488;28;20643;-68
2022/07/31 06:12:42;;;;;;;6.07;4.80;;;;;;;;;;2056840;28;20691;-68
2022/07/31 06:13:42;;;;;;;4.97;4.32;;;;;;;;;;2056521;28;20245;-68
2022/07/31 06:14:54;;;;;;;5.25;4.50;;;;;;;;;;2061494;28;20308;-66
2022/07/31 06:16:13;;;;;;;4.80;4.18;;;;;;;;;;2046373;29;20257;-70
2022/07/31 06:17:13;;;;;;;4.63;4.20;;;;;;;;;;2051066;28;20654;-66
2022/07/31 06:18:14;;;;;;;4.25;3.97;;;;;;;;;;2048543;28;20179;-67
2022/07/31 06:19:15;;;;;;;4.05;3.70;;;;;;;;;;2048826;29;20554;-65
2022/07/31 06:20:15;;;;;;;4.53;3.83;;;;;;;;;;2054317;28;20208;-70
2022/07/31 06:21:16;;;;;;;5.07;3.50;;;;;;;;;;2048264;29;20202;-69